Time;durP1;ratioP1;P1;durP2;ratioP2;P2;SDS_P1;SDS_P2;PMS_P1;PMS_P2;Temp;Humidity;BMP_temperature;BMP_pressure;BME280_temperature;BME280_humidity;BME280_pressure;Samples;Min_cycle;Max_cycle;Signal;HPM_P1;HPM_P2
2023/09/09 00:02:56;;;;;;;10.60;8.10;;;31.20;65.80;;;;;;10455704;28;20106;-34
2023/09/09 00:07:58;;;;;;;10.63;7.90;;;31.20;65.90;;;;;;10461373;28;20116;-33
2023/09/09 00:13:01;;;;;;;9.45;7.43;;;31.10;65.80;;;;;;10446961;28;20131;-31
2023/09/09 00:18:04;;;;;;;9.88;7.35;;;31.10;65.70;;;;;;10453424;28;20053;-35
2023/09/09 00:23:08;;;;;;;10.95;7.78;;;31.00;65.70;;;;;;10455698;28;20049;-32
2023/09/09 00:28:12;;;;;;;9.00;7.28;;;31.00;65.60;;;;;;10450051;28;20045;-34
2023/09/09 00:33:14;;;;;;;7.85;6.90;;;31.00;65.70;;;;;;10443300;28;20504;-32
2023/09/09 00:38:17;;;;;;;9.63;7.13;;;30.90;65.80;;;;;;10456262;28;20110;-32
2023/09/09 00:43:20;;;;;;;8.43;6.68;;;30.90;65.80;;;;;;10449945;28;20056;-37
2023/09/09 00:48:22;;;;;;;9.10;7.00;;;30.90;65.70;;;;;;10447117;28;20132;-32
2023/09/09 00:53:25;;;;;;;8.45;7.40;;;30.90;65.80;;;;;;10454581;28;20124;-37
2023/09/09 00:58:30;;;;;;;12.27;7.05;;;30.80;65.60;;;;;;10446045;28;20064;-33
2023/09/09 01:03:32;;;;;;;10.27;7.05;;;30.80;65.70;;;;;;10447651;28;20076;-39
2023/09/09 01:08:34;;;;;;;7.90;6.30;;;30.70;65.60;;;;;;10444207;28;20076;-35
2023/09/09 01:13:37;;;;;;;7.10;5.95;;;30.70;65.70;;;;;;10433942;28;20134;-31
2023/09/09 01:18:39;;;;;;;8.43;5.90;;;30.70;65.70;;;;;;10429555;28;20136;-36
2023/09/09 01:23:43;;;;;;;7.38;6.05;;;30.70;65.90;;;;;;10445900;28;20068;-34
2023/09/09 01:28:45;;;;;;;8.20;6.47;;;30.60;65.90;;;;;;10458664;28;20094;-31
2023/09/09 01:33:47;;;;;;;8.10;6.40;;;30.60;65.80;;;;;;10449498;28;20157;-32
2023/09/09 01:38:50;;;;;;;7.88;6.13;;;30.60;65.80;;;;;;10446395;28;20057;-35
2023/09/09 01:43:52;;;;;;;8.27;6.00;;;30.50;65.70;;;;;;10447905;28;20049;-32
2023/09/09 01:48:54;;;;;;;7.43;6.35;;;30.50;65.70;;;;;;10440186;28;20482;-37
2023/09/09 01:53:57;;;;;;;9.07;6.63;;;30.40;65.80;;;;;;10440408;28;20103;-36
2023/09/09 01:58:59;;;;;;;7.13;5.70;;;30.50;65.80;;;;;;10449728;28;20151;-36
2023/09/09 02:04:01;;;;;;;9.68;6.35;;;30.40;65.60;;;;;;10441188;28;20144;-32
2023/09/09 02:09:04;;;;;;;9.00;6.60;;;30.40;65.80;;;;;;10450297;28;20140;-35
2023/09/09 02:14:06;;;;;;;8.20;6.40;;;30.40;65.80;;;;;;10443070;28;20077;-33
2023/09/09 02:19:08;;;;;;;8.98;6.35;;;30.40;65.80;;;;;;10432409;28;20076;-38
2023/09/09 02:24:11;;;;;;;7.65;5.72;;;30.30;65.80;;;;;;10447774;28;20049;-34
2023/09/09 02:29:13;;;;;;;8.50;6.47;;;30.30;65.90;;;;;;10448890;28;20128;-36
2023/09/09 02:34:15;;;;;;;9.48;5.93;;;30.20;65.70;;;;;;10439462;28;20041;-31
2023/09/09 02:39:18;;;;;;;10.55;6.97;;;30.20;65.60;;;;;;10444499;28;20646;-32
2023/09/09 02:44:20;;;;;;;9.32;6.70;;;30.20;65.60;;;;;;10448512;28;20132;-33
2023/09/09 02:49:22;;;;;;;9.00;6.10;;;30.20;65.70;;;;;;10445204;28;20052;-31
2023/09/09 02:54:25;;;;;;;8.27;6.70;;;30.10;65.70;;;;;;10435781;28;20095;-38
2023/09/09 03:15:31;;;;;;;6.82;5.85;;;29.90;65.30;;;;;;10555678;27;20113;-34
2023/09/09 03:20:33;;;;;;;11.32;7.38;;;29.90;66.10;;;;;;10566441;28;20074;-36
2023/09/09 03:25:35;;;;;;;8.43;6.45;;;29.90;66.00;;;;;;10566620;28;20040;-37
2023/09/09 03:30:54;;;;;;;8.18;6.68;;;29.90;65.90;;;;;;10564180;28;20101;-33
2023/09/09 03:35:56;;;;;;;7.40;6.18;;;29.90;65.90;;;;;;10551479;28;20464;-36
2023/09/09 03:40:58;;;;;;;8.85;6.68;;;29.80;65.80;;;;;;10558985;28;20136;-36
2023/09/09 03:46:01;;;;;;;9.82;6.78;;;29.80;65.90;;;;;;10558054;28;20044;-38
2023/09/09 03:51:04;;;;;;;8.20;6.72;;;29.80;65.80;;;;;;10543883;28;20632;-34
2023/09/09 03:56:06;;;;;;;8.38;6.45;;;29.70;65.70;;;;;;10560646;28;20127;-33
2023/09/09 04:01:11;;;;;;;7.90;6.45;;;29.70;65.80;;;;;;10563359;28;20067;-34
2023/09/09 04:06:16;;;;;;;9.48;6.15;;;29.70;65.80;;;;;;10553865;28;20044;-34
2023/09/09 04:11:18;;;;;;;7.68;6.70;;;29.70;65.80;;;;;;10554506;28;20138;-33
2023/09/09 04:16:21;;;;;;;12.90;6.45;;;29.70;65.80;;;;;;10564693;28;20084;-32
2023/09/09 04:21:23;;;;;;;10.23;6.35;;;29.70;65.60;;;;;;10564083;28;20467;-35
2023/09/09 04:26:25;;;;;;;8.10;6.43;;;29.60;65.70;;;;;;10525481;28;20499;-29
2023/09/09 04:31:28;;;;;;;7.93;5.90;;;29.60;65.70;;;;;;10535249;28;20105;-29
2023/09/09 04:36:30;;;;;;;8.10;6.22;;;29.60;65.70;;;;;;10525547;28;20580;-34
2023/09/09 04:41:31;;;;;;;8.90;6.75;;;29.50;65.60;;;;;;10520369;28;20079;-33
2023/09/09 04:46:35;;;;;;;10.10;6.32;;;29.50;66.20;;;;;;10535756;28;20113;-35
2023/09/09 04:51:38;;;;;;;7.78;6.20;;;29.50;65.70;;;;;;10528967;28;20683;-32
2023/09/09 04:56:40;;;;;;;9.73;7.03;;;29.50;65.70;;;;;;10521277;28;20067;-36
2023/09/09 05:01:43;;;;;;;14.70;8.30;;;29.50;65.50;;;;;;10527169;28;20040;-28
2023/09/09 05:06:45;;;;;;;12.52;8.68;;;29.50;65.30;;;;;;10520062;28;20044;-40
2023/09/09 05:11:47;;;;;;;12.93;9.27;;;29.40;65.00;;;;;;10514504;28;20056;-33
2023/09/09 05:16:50;;;;;;;12.85;8.82;;;29.40;64.70;;;;;;10529036;28;20484;-38
2023/09/09 05:21:52;;;;;;;13.45;9.27;;;29.40;64.40;;;;;;10509162;28;20445;-32
2023/09/09 05:26:54;;;;;;;13.13;8.38;;;29.30;64.10;;;;;;10516600;28;20520;-32
2023/09/09 05:31:57;;;;;;;8.52;7.28;;;29.30;64.10;;;;;;10515373;28;20246;-35
2023/09/09 05:36:58;;;;;;;10.00;7.78;;;29.30;64.00;;;;;;10527517;28;20563;-38
2023/09/09 05:42:00;;;;;;;12.15;7.90;;;29.20;63.80;;;;;;10519913;28;20101;-32
2023/09/09 05:47:05;;;;;;;9.25;7.68;;;29.20;63.80;;;;;;10530911;28;20052;-34
2023/09/09 05:52:07;;;;;;;15.88;8.50;;;29.20;63.70;;;;;;10518724;28;20334;-33
2023/09/09 05:57:09;;;;;;;12.18;7.55;;;29.20;63.60;;;;;;10520426;28;20632;-39
2023/09/09 06:02:12;;;;;;;13.52;7.88;;;29.20;63.50;;;;;;10534278;28;20083;-35
2023/09/09 06:07:14;;;;;;;12.88;8.80;;;29.20;63.30;;;;;;10524996;28;20062;-36
2023/09/09 06:12:17;;;;;;;12.93;8.48;;;29.20;63.10;;;;;;10509198;28;20143;-39
2023/09/09 06:17:20;;;;;;;10.38;8.95;;;29.20;63.00;;;;;;10514431;28;20047;-36
2023/09/09 06:22:22;;;;;;;12.90;8.93;;;29.20;63.10;;;;;;10505138;28;20551;-35
2023/09/09 06:27:24;;;;;;;12.93;8.38;;;29.20;63.00;;;;;;10524871;28;20135;-34
2023/09/09 06:32:27;;;;;;;13.45;9.13;;;29.20;63.00;;;;;;10521438;28;20481;-32
2023/09/09 06:37:29;;;;;;;13.68;9.07;;;29.20;63.10;;;;;;10510150;28;20087;-39
2023/09/09 06:42:31;;;;;;;12.45;8.65;;;29.20;63.10;;;;;;10523644;28;20041;-36
2023/09/09 06:47:35;;;;;;;13.10;8.65;;;29.20;63.30;;;;;;10527755;28;20052;-37
2023/09/09 06:52:38;;;;;;;9.65;7.40;;;29.20;63.30;;;;;;10528490;28;20497;-35
2023/09/09 06:57:40;;;;;;;12.20;7.90;;;29.20;63.50;;;;;;10517080;28;20051;-33
2023/09/09 07:02:43;;;;;;;12.43;7.80;;;29.20;63.60;;;;;;10512061;28;20083;-34
2023/09/09 07:07:45;;;;;;;13.05;7.80;;;29.20;63.80;;;;;;10515599;28;20044;-34
2023/09/09 07:12:49;;;;;;;11.98;7.60;;;29.30;63.90;;;;;;10516135;28;20079;-32
2023/09/09 07:17:52;;;;;;;10.45;7.85;;;29.20;64.10;;;;;;10507749;28;20056;-38
2023/09/09 07:22:55;;;;;;;11.88;7.10;;;29.20;64.00;;;;;;10519151;28;20126;-32
2023/09/09 07:27:57;;;;;;;11.68;7.43;;;29.20;64.30;;;;;;10502708;28;20638;-34
2023/09/09 07:33:00;;;;;;;13.85;6.80;;;29.20;64.10;;;;;;10522675;28;20048;-36
2023/09/09 07:38:02;;;;;;;12.25;7.30;;;29.20;64.30;;;;;;10513954;28;20527;-38
2023/09/09 07:43:04;;;;;;;10.75;7.30;;;29.10;64.30;;;;;;10505499;28;20113;-33
2023/09/09 07:48:07;;;;;;;13.98;7.88;;;29.20;64.70;;;;;;10516955;28;20041;-34
2023/09/09 07:53:09;;;;;;;11.43;7.57;;;29.20;64.70;;;;;;10522323;28;20105;-39
2023/09/09 07:58:11;;;;;;;12.07;7.80;;;29.30;64.60;;;;;;10529383;28;20071;-40
2023/09/09 08:03:14;;;;;;;11.82;6.70;;;29.30;64.80;;;;;;10525512;28;20097;-41
2023/09/09 08:08:16;;;;;;;13.07;7.28;;;29.20;64.90;;;;;;10530084;28;20135;-35
2023/09/09 08:13:18;;;;;;;9.65;6.30;;;29.20;64.50;;;;;;10529380;28;20139;-36
2023/09/09 08:18:21;;;;;;;8.13;5.70;;;29.20;65.20;;;;;;10538317;28;20449;-32
2023/09/09 08:23:23;;;;;;;7.50;5.18;;;29.10;65.20;;;;;;10532100;28;20105;-37
2023/09/09 08:28:25;;;;;;;8.88;5.43;;;29.10;65.30;;;;;;10524175;28;20074;-33
2023/09/09 08:33:28;;;;;;;6.53;5.20;;;29.10;65.10;;;;;;10529194;28;20083;-33
2023/09/09 08:38:30;;;;;;;6.35;5.05;;;29.10;65.20;;;;;;10531909;28;20849;-34
2023/09/09 08:43:42;;;;;;;8.07;4.90;;;29.10;65.10;;;;;;10524357;28;20071;-34
2023/09/09 08:48:46;;;;;;;5.22;4.68;;;29.10;65.10;;;;;;10506056;28;20064;-40
2023/09/09 08:53:51;;;;;;;7.32;4.88;;;29.20;64.90;;;;;;10534761;28;20078;-32
2023/09/09 08:58:54;;;;;;;6.03;4.82;;;29.20;64.70;;;;;;10540471;28;20101;-38
2023/09/09 09:03:58;;;;;;;5.07;4.47;;;29.10;64.50;;;;;;10523753;28;20045;-36
2023/09/09 09:08:59;;;;;;;6.45;5.05;;;29.00;65.40;;;;;;10520787;28;20120;-31
2023/09/09 09:14:07;;;;;;;6.05;4.97;;;29.20;65.00;;;;;;10530534;28;20177;-35
2023/09/09 09:19:20;;;;;;;5.63;4.90;;;29.30;64.80;;;;;;10526876;28;20060;-37
2023/09/09 09:24:24;;;;;;;5.40;4.80;;;29.30;64.60;;;;;;10536980;28;20047;-33
2023/09/09 09:29:38;;;;;;;6.45;5.43;;;29.40;64.70;;;;;;10547639;28;20134;-41
2023/09/09 09:34:41;;;;;;;5.68;4.30;;;29.00;62.40;;;;;;10506453;28;20089;-33
2023/09/09 09:39:45;;;;;;;6.72;4.35;;;29.20;65.10;;;;;;10523888;28;20060;-34
2023/09/09 09:44:47;;;;;;;4.25;3.85;;;29.70;63.70;;;;;;10525249;28;20116;-33
2023/09/09 09:49:51;;;;;;;3.90;3.50;;;29.80;63.20;;;;;;10526882;28;20071;-34
2023/09/09 09:54:55;;;;;;;5.68;4.03;;;29.90;62.80;;;;;;10513314;28;20043;-36
2023/09/09 09:59:57;;;;;;;3.90;3.53;;;30.00;62.50;;;;;;10508406;28;20055;-39
2023/09/09 10:05:03;;;;;;;3.60;3.30;;;29.90;62.60;;;;;;10527735;28;20132;-35
2023/09/09 10:10:09;;;;;;;4.38;3.55;;;29.70;63.10;;;;;;10539908;28;20054;-33
2023/09/09 10:15:12;;;;;;;4.43;3.35;;;29.70;63.50;;;;;;10517619;28;20052;-34
2023/09/09 10:20:16;;;;;;;11.18;7.30;;;29.50;63.80;;;;;;10518788;28;20493;-35
2023/09/09 10:25:18;;;;;;;9.65;7.03;;;28.90;63.50;;;;;;10529492;28;20075;-40
2023/09/09 10:30:22;;;;;;;4.47;3.15;;;28.80;64.00;;;;;;10522008;28;20488;-32
2023/09/09 10:35:25;;;;;;;4.78;4.03;;;29.60;64.10;;;;;;10521626;28;20076;-38
2023/09/09 10:40:27;;;;;;;15.07;8.63;;;30.20;62.50;;;;;;10518689;28;20093;-33
2023/09/09 10:45:32;;;;;;;15.18;8.80;;;29.60;62.40;;;;;;10530769;28;20146;-33
2023/09/09 10:50:44;;;;;;;13.70;7.80;;;29.30;63.00;;;;;;10504952;28;20476;-31
2023/09/09 10:55:47;;;;;;;15.50;9.40;;;29.70;63.20;;;;;;10532589;28;20109;-34
2023/09/09 11:00:50;;;;;;;5.78;4.40;;;29.90;60.60;;;;;;10511756;28;22318;-33
2023/09/09 11:06:05;;;;;;;3.55;3.25;;;30.20;62.50;;;;;;10521050;28;20039;-33
2023/09/09 11:11:08;;;;;;;12.30;9.00;;;30.10;63.20;;;;;;10528908;28;20059;-34
2023/09/09 11:16:25;;;;;;;9.27;5.00;;;30.30;60.50;;;;;;10519193;28;20083;-33
2023/09/09 11:21:30;;;;;;;13.55;7.85;;;29.80;63.60;;;;;;10525293;28;20055;-34
2023/09/09 11:26:32;;;;;;;3.42;3.13;;;29.60;62.60;;;;;;10530230;28;20067;-32
2023/09/09 11:31:34;;;;;;;3.55;2.97;;;30.00;63.80;;;;;;10525795;28;20052;-32
2023/09/09 11:36:37;;;;;;;3.03;2.70;;;30.10;63.50;;;;;;10536071;28;20086;-31
2023/09/09 11:41:41;;;;;;;14.32;7.65;;;30.30;62.80;;;;;;10530450;28;20074;-36
2023/09/09 11:46:45;;;;;;;8.23;6.40;;;30.20;61.50;;;;;;10545028;28;20535;-31
2023/09/09 11:51:48;;;;;;;11.00;7.70;;;30.60;62.30;;;;;;10538768;28;20401;-32
2023/09/09 11:56:50;;;;;;;17.02;8.57;;;31.10;61.20;;;;;;10533087;28;20068;-34
2023/09/09 12:01:52;;;;;;;19.40;11.23;;;31.20;60.30;;;;;;10524692;28;20429;-33
2023/09/09 12:06:55;;;;;;;17.73;9.60;;;30.90;59.60;;;;;;10522427;28;20131;-32
2023/09/09 12:11:57;;;;;;;15.48;11.10;;;31.30;60.20;;;;;;10532826;28;20135;-34
2023/09/09 12:16:59;;;;;;;15.52;10.25;;;31.40;59.50;;;;;;10511620;28;20142;-31
2023/09/09 12:22:02;;;;;;;6.22;3.40;;;31.60;59.10;;;;;;10531227;28;20055;-34
2023/09/09 12:27:04;;;;;;;12.70;8.30;;;31.40;60.60;;;;;;10528585;28;20045;-38
2023/09/09 12:32:07;;;;;;;6.15;3.75;;;31.10;60.00;;;;;;10531370;28;20087;-38
2023/09/09 12:37:10;;;;;;;10.60;7.00;;;31.30;60.70;;;;;;10526015;28;20139;-37
2023/09/09 12:42:12;;;;;;;12.38;7.60;;;31.10;58.30;;;;;;10524653;28;20506;-32
2023/09/09 12:47:19;;;;;;;10.52;4.72;;;31.40;59.10;;;;;;10536840;28;20135;-37
2023/09/09 12:52:23;;;;;;;8.73;4.60;;;31.70;58.30;;;;;;10527686;28;20488;-32
2023/09/09 12:57:24;;;;;;;6.80;4.70;;;32.20;57.40;;;;;;10539446;28;20087;-37
2023/09/09 13:02:26;;;;;;;11.23;4.63;;;32.70;57.20;;;;;;10535090;28;20040;-32
2023/09/09 13:07:29;;;;;;;7.20;3.83;;;33.00;55.40;;;;;;10526348;28;20079;-34
2023/09/09 13:12:31;;;;;;;5.00;4.50;;;33.40;56.70;;;;;;10518727;28;20095;-34
2023/09/09 13:17:33;;;;;;;5.28;3.70;;;33.40;55.80;;;;;;10532107;28;20068;-37
2023/09/09 13:22:36;;;;;;;7.10;4.15;;;33.50;56.00;;;;;;10519578;28;20115;-37
2023/09/09 13:27:38;;;;;;;8.38;3.42;;;33.70;55.00;;;;;;10537398;28;20119;-35
2023/09/09 13:32:40;;;;;;;10.35;4.57;;;33.60;54.70;;;;;;10532873;28;20483;-33
2023/09/09 13:37:43;;;;;;;7.75;4.63;;;34.00;53.30;;;;;;10530733;28;20036;-34
2023/09/09 13:42:45;;;;;;;7.05;3.65;;;34.20;53.60;;;;;;10533592;28;20135;-37
2023/09/09 13:47:47;;;;;;;4.65;2.92;;;34.30;54.30;;;;;;10533594;28;20052;-33
2023/09/09 13:52:50;;;;;;;10.23;4.20;;;34.30;54.50;;;;;;10512157;28;20088;-34
2023/09/09 13:57:52;;;;;;;2.97;2.78;;;34.20;52.20;;;;;;10537854;28;20683;-32
2023/09/09 14:02:54;;;;;;;2.70;2.50;;;34.10;55.40;;;;;;10524169;28;20127;-34
2023/09/09 14:07:57;;;;;;;11.98;4.50;;;34.20;53.90;;;;;;10529783;28;20127;-35
2023/09/09 14:12:59;;;;;;;2.83;2.42;;;35.00;51.50;;;;;;10526142;28;20063;-34
2023/09/09 14:18:01;;;;;;;3.85;3.03;;;34.80;54.50;;;;;;10527808;28;20050;-34
2023/09/09 14:23:04;;;;;;;3.95;2.75;;;35.40;52.40;;;;;;10527541;28;20075;-37
2023/09/09 14:28:06;;;;;;;2.70;2.40;;;35.10;54.00;;;;;;10522498;28;20041;-32
2023/09/09 14:33:08;;;;;;;5.35;3.65;;;35.40;54.60;;;;;;10526558;28;20048;-34
2023/09/09 14:38:11;;;;;;;7.57;2.90;;;36.10;52.10;;;;;;10526477;28;20078;-33
2023/09/09 14:43:13;;;;;;;2.40;2.20;;;35.80;52.90;;;;;;10513483;28;20136;-34
2023/09/09 14:48:15;;;;;;;12.00;6.25;;;35.70;53.50;;;;;;10521885;28;20131;-33
2023/09/09 14:53:18;;;;;;;11.85;4.28;;;36.30;53.10;;;;;;10524883;28;20051;-31
2023/09/09 14:58:20;;;;;;;7.65;4.07;;;36.30;49.60;;;;;;10532360;28;20052;-34
2023/09/09 15:03:22;;;;;;;6.07;3.70;;;36.20;50.00;;;;;;10509478;28;20094;-38
2023/09/09 15:08:25;;;;;;;3.22;2.25;;;36.50;50.30;;;;;;10518133;28;20131;-34
2023/09/09 15:13:28;;;;;;;4.88;2.55;;;35.80;54.00;;;;;;10530259;28;20136;-32
2023/09/09 15:18:29;;;;;;;9.30;4.47;;;36.20;52.60;;;;;;10522649;28;20076;-32
2023/09/09 15:23:33;;;;;;;15.07;3.92;;;36.30;49.70;;;;;;10518039;28;20056;-36
2023/09/09 15:28:34;;;;;;;6.10;3.40;;;36.40;51.80;;;;;;10525785;28;20135;-32
2023/09/09 15:33:36;;;;;;;5.45;3.25;;;36.90;50.70;;;;;;10526816;28;20082;-29
2023/09/09 15:38:41;;;;;;;5.18;3.45;;;37.50;49.50;;;;;;10517997;28;20585;-35
2023/09/09 15:43:45;;;;;;;3.28;2.58;;;37.10;48.70;;;;;;10525213;28;20063;-40
2023/09/09 15:48:47;;;;;;;8.20;2.88;;;36.50;52.60;;;;;;10521690;28;20044;-32
2023/09/09 15:53:51;;;;;;;5.30;3.20;;;37.20;51.80;;;;;;10534706;28;20120;-34
2023/09/09 15:58:53;;;;;;;6.80;3.05;;;37.60;51.20;;;;;;10529346;28;20036;-32
2023/09/09 16:03:55;;;;;;;7.45;3.33;;;37.30;52.10;;;;;;10532395;28;20085;-40
2023/09/09 16:08:58;;;;;;;3.50;2.47;;;38.40;49.00;;;;;;10529248;28;20048;-32
2023/09/09 16:13:59;;;;;;;10.02;3.35;;;37.90;52.00;;;;;;10536260;28;20919;-33
2023/09/09 16:19:01;;;;;;;4.80;2.55;;;37.50;51.50;;;;;;10526658;28;20075;-32
2023/09/09 16:24:06;;;;;;;5.28;3.28;;;36.90;52.80;;;;;;10532593;28;20127;-33
2023/09/09 16:29:08;;;;;;;3.83;2.92;;;38.00;51.30;;;;;;10535886;28;20467;-33
2023/09/09 16:34:10;;;;;;;2.95;2.28;;;37.30;53.00;;;;;;10530432;28;20054;-33
2023/09/09 16:39:13;;;;;;;2.78;2.42;;;36.50;53.60;;;;;;10523542;28;20071;-30
2023/09/09 16:44:15;;;;;;;3.15;2.58;;;36.40;54.10;;;;;;10517406;28;20127;-31
2023/09/09 16:49:17;;;;;;;4.78;2.67;;;37.30;53.60;;;;;;10532713;28;20060;-32
2023/09/09 16:54:20;;;;;;;3.25;2.95;;;37.30;53.30;;;;;;10533585;28;20157;-32
2023/09/09 16:59:26;;;;;;;2.72;2.45;;;36.40;54.70;;;;;;10533982;28;20131;-31
2023/09/09 17:04:28;;;;;;;3.17;2.88;;;36.40;54.30;;;;;;10520576;28;20055;-33
2023/09/09 17:09:31;;;;;;;5.72;3.05;;;36.10;54.80;;;;;;10533714;28;20076;-31
2023/09/09 17:14:33;;;;;;;2.92;2.63;;;36.20;54.70;;;;;;10531123;28;20101;-34
2023/09/09 17:19:36;;;;;;;2.83;2.53;;;36.00;55.20;;;;;;10535237;28;20558;-36
2023/09/09 17:24:39;;;;;;;6.93;2.78;;;36.00;55.10;;;;;;10536977;28;20047;-38
2023/09/09 17:29:42;;;;;;;4.93;2.97;;;35.80;55.40;;;;;;10527420;28;20119;-34
2023/09/09 17:34:44;;;;;;;3.08;2.50;;;35.70;55.50;;;;;;10532068;28;20459;-38
2023/09/09 17:39:47;;;;;;;4.65;3.00;;;35.60;55.80;;;;;;10530995;28;20064;-38
2023/09/09 17:44:49;;;;;;;3.40;2.80;;;35.50;56.10;;;;;;10531072;28;20132;-32
2023/09/09 17:49:51;;;;;;;3.90;3.50;;;35.40;56.10;;;;;;10529455;28;20170;-32
2023/09/09 17:54:55;;;;;;;3.30;2.90;;;35.30;56.90;;;;;;10524557;28;20536;-32
2023/09/09 17:59:57;;;;;;;4.97;3.60;;;35.30;56.40;;;;;;10534070;28;20052;-35
2023/09/09 18:04:58;;;;;;;4.05;3.60;;;35.20;56.60;;;;;;10517609;28;20076;-39
2023/09/09 18:10:02;;;;;;;4.60;3.35;;;35.20;56.80;;;;;;10551791;28;20132;-33
2023/09/09 18:15:05;;;;;;;4.80;3.08;;;35.10;56.80;;;;;;10531607;28;20403;-31
2023/09/09 18:20:08;;;;;;;3.63;3.33;;;35.00;56.90;;;;;;10538031;28;20052;-30
2023/09/09 18:25:11;;;;;;;4.65;3.35;;;34.90;57.10;;;;;;10529944;28;20048;-34
2023/09/09 18:30:13;;;;;;;4.63;3.65;;;34.90;57.10;;;;;;10528856;28;20109;-37
2023/09/09 18:35:15;;;;;;;4.20;3.00;;;34.80;57.40;;;;;;10537190;28;20052;-39
2023/09/09 18:40:18;;;;;;;4.25;3.40;;;34.70;57.30;;;;;;10528955;28;20068;-31
2023/09/09 18:45:20;;;;;;;3.60;3.30;;;34.60;58.10;;;;;;10526009;28;20076;-31
2023/09/09 18:50:22;;;;;;;3.70;3.13;;;34.60;57.60;;;;;;10516818;28;20072;-37
2023/09/09 18:55:26;;;;;;;3.95;2.95;;;34.50;57.70;;;;;;10522948;28;20048;-36
2023/09/09 19:00:28;;;;;;;3.67;3.17;;;34.40;57.80;;;;;;10524267;28;20115;-35
2023/09/09 19:05:32;;;;;;;3.20;2.90;;;34.40;57.90;;;;;;10530651;28;20082;-31
2023/09/09 19:10:35;;;;;;;3.88;3.42;;;34.30;58.10;;;;;;10523800;28;20138;-31
2023/09/09 19:15:37;;;;;;;3.50;3.20;;;34.20;58.20;;;;;;10522776;28;20079;-37
2023/09/09 19:20:39;;;;;;;3.00;2.80;;;34.20;58.40;;;;;;10517951;28;20079;-34
2023/09/09 19:25:43;;;;;;;3.55;3.25;;;34.00;58.30;;;;;;10523922;28;20485;-34
2023/09/09 19:30:45;;;;;;;3.88;3.40;;;34.00;58.50;;;;;;10519328;28;20544;-31
2023/09/09 19:35:47;;;;;;;6.10;3.28;;;33.90;58.70;;;;;;10530744;28;20142;-31
2023/09/09 19:40:50;;;;;;;4.68;3.05;;;33.90;58.70;;;;;;10526678;28;20185;-37
2023/09/09 19:45:52;;;;;;;3.65;3.08;;;33.80;58.80;;;;;;10531124;28;20117;-31
2023/09/09 19:50:55;;;;;;;3.28;2.90;;;33.70;58.80;;;;;;10531774;28;20135;-31
2023/09/09 19:55:58;;;;;;;3.78;3.20;;;33.70;59.10;;;;;;10524230;28;20102;-34
2023/09/09 20:01:00;;;;;;;4.63;3.03;;;33.60;58.90;;;;;;10530526;28;20181;-36
2023/09/09 20:06:02;;;;;;;4.05;3.53;;;33.60;59.10;;;;;;10541492;28;20457;-33
2023/09/09 20:11:06;;;;;;;4.90;3.70;;;33.50;59.30;;;;;;10530241;28;20049;-35
2023/09/09 20:16:08;;;;;;;4.03;3.63;;;33.50;59.30;;;;;;10525677;28;20147;-32
2023/09/09 20:21:10;;;;;;;4.43;3.22;;;33.40;59.30;;;;;;10536947;28;20074;-33
2023/09/09 20:26:13;;;;;;;4.07;3.22;;;33.30;59.30;;;;;;10531065;28;20075;-32
2023/09/09 20:31:15;;;;;;;4.95;3.75;;;33.30;59.40;;;;;;10540016;28;20048;-33
2023/09/09 20:36:18;;;;;;;4.93;3.97;;;33.30;59.60;;;;;;10534886;28;20135;-39
2023/09/09 20:41:21;;;;;;;5.13;3.88;;;33.20;59.50;;;;;;10528276;28;20045;-31
2023/09/09 20:46:23;;;;;;;3.65;3.22;;;33.20;59.50;;;;;;10511580;28;20048;-34
2023/09/09 20:51:25;;;;;;;5.07;3.92;;;33.10;59.60;;;;;;10525542;28;20071;-39
2023/09/09 20:56:30;;;;;;;5.55;4.07;;;33.10;59.70;;;;;;10538293;28;20047;-34
2023/09/09 21:01:33;;;;;;;4.70;3.33;;;33.00;59.70;;;;;;10536182;28;20392;-35
2023/09/09 21:06:35;;;;;;;4.65;3.40;;;33.00;59.80;;;;;;10532297;28;20044;-31
2023/09/09 21:11:38;;;;;;;4.95;3.60;;;32.90;59.80;;;;;;10533339;28;20504;-32
2023/09/09 21:16:40;;;;;;;4.72;3.45;;;32.90;60.00;;;;;;10521749;28;20076;-32
2023/09/09 21:21:42;;;;;;;4.57;3.75;;;32.80;60.00;;;;;;10521228;28;20142;-33
2023/09/09 21:26:45;;;;;;;4.93;3.70;;;32.80;60.00;;;;;;10531859;28;20090;-39
2023/09/09 21:31:49;;;;;;;5.00;3.60;;;32.70;60.00;;;;;;10527486;28;20131;-29
2023/09/09 21:36:51;;;;;;;4.28;3.67;;;32.70;60.10;;;;;;10524235;28;20106;-31
2023/09/09 21:41:54;;;;;;;5.75;3.53;;;32.70;60.10;;;;;;10526897;28;20055;-36
2023/09/09 21:46:57;;;;;;;4.07;3.40;;;32.70;60.20;;;;;;10507249;28;20048;-33
2023/09/09 21:51:59;;;;;;;3.92;3.33;;;32.60;60.20;;;;;;10529015;28;20506;-36
2023/09/09 21:57:02;;;;;;;4.60;3.60;;;32.60;60.30;;;;;;10529383;28;20121;-38
2023/09/09 22:02:06;;;;;;;3.97;3.58;;;32.50;60.30;;;;;;10519474;28;20101;-37
2023/09/09 22:07:07;;;;;;;4.43;3.85;;;32.50;60.30;;;;;;10529700;28;20048;-33
2023/09/09 22:12:11;;;;;;;3.75;3.42;;;32.40;60.30;;;;;;10523296;28;20068;-39
2023/09/09 22:17:13;;;;;;;3.47;3.17;;;32.40;60.40;;;;;;10518983;28;20084;-39
2023/09/09 22:22:15;;;;;;;4.38;3.63;;;32.30;60.50;;;;;;10514547;28;20213;-36
2023/09/09 22:27:18;;;;;;;4.95;3.28;;;32.30;60.50;;;;;;10515884;28;20048;-33
2023/09/09 22:32:20;;;;;;;4.72;3.85;;;32.30;60.60;;;;;;10521174;28;20135;-32
2023/09/09 22:37:24;;;;;;;4.80;3.65;;;32.30;60.70;;;;;;10523437;28;20048;-32
2023/09/09 22:42:27;;;;;;;7.32;3.88;;;32.30;60.70;;;;;;10522056;28;20111;-36
2023/09/09 22:47:29;;;;;;;5.65;3.85;;;32.30;60.80;;;;;;10512965;28;20055;-33
2023/09/09 22:52:31;;;;;;;7.32;3.55;;;32.20;60.90;;;;;;10512392;28;20405;-35
2023/09/09 22:57:35;;;;;;;5.35;3.67;;;32.10;61.00;;;;;;10508574;28;20064;-35
2023/09/09 23:02:37;;;;;;;5.10;3.90;;;32.10;61.00;;;;;;10511948;28;20139;-33
2023/09/09 23:07:39;;;;;;;8.43;3.58;;;32.10;61.10;;;;;;10511937;28;20052;-41
2023/09/09 23:12:42;;;;;;;6.65;3.90;;;32.10;61.10;;;;;;10523698;28;20087;-37
2023/09/09 23:17:44;;;;;;;6.72;3.45;;;32.10;61.20;;;;;;10507694;28;20080;-31
2023/09/09 23:22:46;;;;;;;4.53;3.80;;;32.00;61.20;;;;;;10511015;28;20067;-32
2023/09/09 23:27:51;;;;;;;4.50;3.88;;;32.00;61.20;;;;;;10523133;28;20139;-33
2023/09/09 23:32:52;;;;;;;5.60;3.80;;;32.00;61.20;;;;;;10536922;28;20044;-31
2023/09/09 23:37:55;;;;;;;9.23;5.03;;;31.90;61.30;;;;;;10541008;28;20087;-35
2023/09/09 23:42:59;;;;;;;6.75;4.05;;;31.90;61.30;;;;;;10535584;28;20083;-32
2023/09/09 23:48:01;;;;;;;5.43;4.10;;;31.90;61.40;;;;;;10538890;28;20696;-38
2023/09/09 23:53:03;;;;;;;4.57;4.05;;;31.80;61.30;;;;;;10528021;28;20808;-32
2023/09/09 23:58:06;;;;;;;5.78;4.10;;;31.80;61.40;;;;;;10530010;28;20090;-32
